sensor_id;sensor_type;location;lat;lon;timestamp;temperature;humidity
16781;DHT22;8507;50.056;8.248;2023-04-25T00:01:34;9.60;99.90
16781;DHT22;8507;50.056;8.248;2023-04-25T00:04:01;9.50;99.90
16781;DHT22;8507;50.056;8.248;2023-04-25T00:06:28;9.60;99.90
16781;DHT22;8507;50.056;8.248;2023-04-25T00:08:53;9.60;99.90
16781;DHT22;8507;50.056;8.248;2023-04-25T00:11:19;9.70;99.90
16781;DHT22;8507;50.056;8.248;2023-04-25T00:13:45;9.70;99.90
16781;DHT22;8507;50.056;8.248;2023-04-25T00:16:11;9.70;99.90
16781;DHT22;8507;50.056;8.248;2023-04-25T00:18:38;9.60;99.90
16781;DHT22;8507;50.056;8.248;2023-04-25T00:21:05;9.60;99.90
16781;DHT22;8507;50.056;8.248;2023-04-25T00:23:31;9.60;99.90
16781;DHT22;8507;50.056;8.248;2023-04-25T00:25:57;9.60;99.90
16781;DHT22;8507;50.056;8.248;2023-04-25T00:28:22;9.60;99.90
16781;DHT22;8507;50.056;8.248;2023-04-25T00:30:48;9.60;99.90
16781;DHT22;8507;50.056;8.248;2023-04-25T00:33:13;9.60;99.90
16781;DHT22;8507;50.056;8.248;2023-04-25T00:35:39;9.60;99.90
16781;DHT22;8507;50.056;8.248;2023-04-25T00:38:04;9.60;99.90
16781;DHT22;8507;50.056;8.248;2023-04-25T00:40:30;9.70;99.90
16781;DHT22;8507;50.056;8.248;2023-04-25T00:42:55;9.70;99.90
16781;DHT22;8507;50.056;8.248;2023-04-25T00:45:21;9.70;99.90
16781;DHT22;8507;50.056;8.248;2023-04-25T00:47:47;9.70;99.90
16781;DHT22;8507;50.056;8.248;2023-04-25T00:50:15;9.70;99.90
16781;DHT22;8507;50.056;8.248;2023-04-25T00:52:43;9.70;99.90
16781;DHT22;8507;50.056;8.248;2023-04-25T00:55:10;9.70;99.90
16781;DHT22;8507;50.056;8.248;2023-04-25T00:57:36;9.80;99.90
16781;DHT22;8507;50.056;8.248;2023-04-25T01:00:03;9.90;99.90
16781;DHT22;8507;50.056;8.248;2023-04-25T01:02:30;9.90;99.90
16781;DHT22;8507;50.056;8.248;2023-04-25T01:04:57;9.90;99.90
16781;DHT22;8507;50.056;8.248;2023-04-25T01:07:23;9.90;99.90
16781;DHT22;8507;50.056;8.248;2023-04-25T01:09:48;9.90;99.90
16781;DHT22;8507;50.056;8.248;2023-04-25T01:12:14;9.90;99.90
16781;DHT22;8507;50.056;8.248;2023-04-25T01:14:40;9.80;99.90
16781;DHT22;8507;50.056;8.248;2023-04-25T01:17:06;9.90;99.90
16781;DHT22;8507;50.056;8.248;2023-04-25T01:19:32;9.90;99.90
16781;DHT22;8507;50.056;8.248;2023-04-25T01:21:58;9.90;99.90
16781;DHT22;8507;50.056;8.248;2023-04-25T01:24:24;9.90;99.90
16781;DHT22;8507;50.056;8.248;2023-04-25T01:26:49;9.90;99.90
16781;DHT22;8507;50.056;8.248;2023-04-25T01:29:20;9.90;99.90
16781;DHT22;8507;50.056;8.248;2023-04-25T01:31:46;10.00;99.90
16781;DHT22;8507;50.056;8.248;2023-04-25T01:34:12;10.00;99.90
16781;DHT22;8507;50.056;8.248;2023-04-25T01:36:38;10.10;99.90
16781;DHT22;8507;50.056;8.248;2023-04-25T01:39:03;9.90;99.90
16781;DHT22;8507;50.056;8.248;2023-04-25T01:41:29;9.90;99.90
16781;DHT22;8507;50.056;8.248;2023-04-25T01:43:55;9.90;99.90
16781;DHT22;8507;50.056;8.248;2023-04-25T01:46:20;10.00;99.90
16781;DHT22;8507;50.056;8.248;2023-04-25T01:48:46;10.00;99.90
16781;DHT22;8507;50.056;8.248;2023-04-25T01:51:12;10.00;99.90
16781;DHT22;8507;50.056;8.248;2023-04-25T01:53:39;10.00;99.90
16781;DHT22;8507;50.056;8.248;2023-04-25T01:56:05;10.00;99.90
16781;DHT22;8507;50.056;8.248;2023-04-25T01:58:30;10.00;99.90
16781;DHT22;8507;50.056;8.248;2023-04-25T02:00:56;9.90;99.90
16781;DHT22;8507;50.056;8.248;2023-04-25T02:03:21;9.90;99.90
16781;DHT22;8507;50.056;8.248;2023-04-25T02:05:47;9.70;99.90
16781;DHT22;8507;50.056;8.248;2023-04-25T02:08:13;9.70;99.90
16781;DHT22;8507;50.056;8.248;2023-04-25T02:10:38;9.60;99.90
16781;DHT22;8507;50.056;8.248;2023-04-25T02:13:04;9.60;99.90
16781;DHT22;8507;50.056;8.248;2023-04-25T02:15:30;9.60;99.90
16781;DHT22;8507;50.056;8.248;2023-04-25T02:17:56;9.60;99.90
16781;DHT22;8507;50.056;8.248;2023-04-25T02:20:22;9.70;99.90
16781;DHT22;8507;50.056;8.248;2023-04-25T02:22:48;9.60;99.90
16781;DHT22;8507;50.056;8.248;2023-04-25T02:25:14;9.70;99.90
16781;DHT22;8507;50.056;8.248;2023-04-25T02:27:41;9.60;99.90
16781;DHT22;8507;50.056;8.248;2023-04-25T02:30:07;9.60;99.90
16781;DHT22;8507;50.056;8.248;2023-04-25T02:32:33;9.50;99.90
16781;DHT22;8507;50.056;8.248;2023-04-25T02:34:59;9.50;99.90
16781;DHT22;8507;50.056;8.248;2023-04-25T02:37:29;9.50;99.90
16781;DHT22;8507;50.056;8.248;2023-04-25T02:39:55;9.50;99.90
16781;DHT22;8507;50.056;8.248;2023-04-25T02:42:20;9.50;99.90
16781;DHT22;8507;50.056;8.248;2023-04-25T02:44:46;9.50;99.90
16781;DHT22;8507;50.056;8.248;2023-04-25T02:47:11;9.50;99.90
16781;DHT22;8507;50.056;8.248;2023-04-25T02:49:37;9.60;99.90
16781;DHT22;8507;50.056;8.248;2023-04-25T02:52:02;9.60;99.90
16781;DHT22;8507;50.056;8.248;2023-04-25T02:54:28;9.50;99.90
16781;DHT22;8507;50.056;8.248;2023-04-25T02:56:53;9.50;99.90
16781;DHT22;8507;50.056;8.248;2023-04-25T02:59:19;9.50;99.90
16781;DHT22;8507;50.056;8.248;2023-04-25T03:01:44;9.40;99.90
16781;DHT22;8507;50.056;8.248;2023-04-25T03:04:10;9.40;99.90
16781;DHT22;8507;50.056;8.248;2023-04-25T03:06:36;9.30;99.90
16781;DHT22;8507;50.056;8.248;2023-04-25T03:09:01;9.20;99.90
16781;DHT22;8507;50.056;8.248;2023-04-25T03:11:27;9.20;99.90
16781;DHT22;8507;50.056;8.248;2023-04-25T03:13:52;9.20;99.90
16781;DHT22;8507;50.056;8.248;2023-04-25T03:16:18;9.30;99.90
16781;DHT22;8507;50.056;8.248;2023-04-25T03:18:43;9.20;99.90
16781;DHT22;8507;50.056;8.248;2023-04-25T03:21:09;8.90;99.90
16781;DHT22;8507;50.056;8.248;2023-04-25T03:23:34;8.80;99.90
16781;DHT22;8507;50.056;8.248;2023-04-25T03:26:00;8.80;99.90
16781;DHT22;8507;50.056;8.248;2023-04-25T03:28:25;8.70;99.90
16781;DHT22;8507;50.056;8.248;2023-04-25T03:30:51;8.50;99.90
16781;DHT22;8507;50.056;8.248;2023-04-25T03:33:16;8.30;99.90
16781;DHT22;8507;50.056;8.248;2023-04-25T03:35:42;8.20;99.90
16781;DHT22;8507;50.056;8.248;2023-04-25T03:38:08;8.10;99.90
16781;DHT22;8507;50.056;8.248;2023-04-25T03:40:33;8.00;99.90
16781;DHT22;8507;50.056;8.248;2023-04-25T03:42:59;8.10;99.90
16781;DHT22;8507;50.056;8.248;2023-04-25T03:45:25;8.10;99.90
16781;DHT22;8507;50.056;8.248;2023-04-25T03:47:50;8.20;99.90
16781;DHT22;8507;50.056;8.248;2023-04-25T03:50:16;8.20;99.90
16781;DHT22;8507;50.056;8.248;2023-04-25T03:52:42;8.20;99.90
16781;DHT22;8507;50.056;8.248;2023-04-25T03:55:08;8.20;99.90
16781;DHT22;8507;50.056;8.248;2023-04-25T03:57:34;8.20;99.90
16781;DHT22;8507;50.056;8.248;2023-04-25T03:59:59;8.30;99.90
16781;DHT22;8507;50.056;8.248;2023-04-25T04:02:25;8.30;99.90
16781;DHT22;8507;50.056;8.248;2023-04-25T04:04:51;8.20;99.90
16781;DHT22;8507;50.056;8.248;2023-04-25T04:07:16;8.20;99.90
16781;DHT22;8507;50.056;8.248;2023-04-25T04:09:45;8.30;99.90
16781;DHT22;8507;50.056;8.248;2023-04-25T04:12:10;8.30;99.90
16781;DHT22;8507;50.056;8.248;2023-04-25T04:14:36;8.30;99.90
16781;DHT22;8507;50.056;8.248;2023-04-25T04:17:01;8.20;99.90
16781;DHT22;8507;50.056;8.248;2023-04-25T04:19:27;8.20;99.90
16781;DHT22;8507;50.056;8.248;2023-04-25T04:21:52;8.20;99.90
16781;DHT22;8507;50.056;8.248;2023-04-25T04:24:18;8.20;99.90
16781;DHT22;8507;50.056;8.248;2023-04-25T04:26:43;8.00;99.90
16781;DHT22;8507;50.056;8.248;2023-04-25T04:29:12;8.10;99.90
16781;DHT22;8507;50.056;8.248;2023-04-25T04:31:47;8.00;99.90
16781;DHT22;8507;50.056;8.248;2023-04-25T04:34:12;8.00;99.90
16781;DHT22;8507;50.056;8.248;2023-04-25T04:36:38;7.80;99.90
16781;DHT22;8507;50.056;8.248;2023-04-25T04:39:06;7.80;99.90
16781;DHT22;8507;50.056;8.248;2023-04-25T04:41:31;7.90;99.90
16781;DHT22;8507;50.056;8.248;2023-04-25T04:43:57;7.80;99.90
16781;DHT22;8507;50.056;8.248;2023-04-25T04:46:23;7.70;99.90
16781;DHT22;8507;50.056;8.248;2023-04-25T04:48:50;7.70;99.90
16781;DHT22;8507;50.056;8.248;2023-04-25T04:51:15;7.50;99.90
16781;DHT22;8507;50.056;8.248;2023-04-25T04:53:41;7.30;99.90
16781;DHT22;8507;50.056;8.248;2023-04-25T04:56:06;7.30;99.90
16781;DHT22;8507;50.056;8.248;2023-04-25T04:58:32;7.30;99.90
16781;DHT22;8507;50.056;8.248;2023-04-25T05:00:58;7.10;99.90
16781;DHT22;8507;50.056;8.248;2023-04-25T05:03:23;7.00;99.90
16781;DHT22;8507;50.056;8.248;2023-04-25T05:05:49;7.00;99.90
16781;DHT22;8507;50.056;8.248;2023-04-25T05:08:14;6.90;99.90
16781;DHT22;8507;50.056;8.248;2023-04-25T05:10:40;6.90;99.90
16781;DHT22;8507;50.056;8.248;2023-04-25T05:13:06;6.90;99.90
16781;DHT22;8507;50.056;8.248;2023-04-25T05:15:32;6.90;99.90
16781;DHT22;8507;50.056;8.248;2023-04-25T05:17:57;7.20;99.90
16781;DHT22;8507;50.056;8.248;2023-04-25T05:20:23;7.20;99.90
16781;DHT22;8507;50.056;8.248;2023-04-25T05:22:48;7.30;99.90
16781;DHT22;8507;50.056;8.248;2023-04-25T05:25:14;7.30;99.90
16781;DHT22;8507;50.056;8.248;2023-04-25T05:27:40;7.60;99.90
16781;DHT22;8507;50.056;8.248;2023-04-25T05:30:05;7.70;99.90
16781;DHT22;8507;50.056;8.248;2023-04-25T05:32:32;7.60;99.90
16781;DHT22;8507;50.056;8.248;2023-04-25T05:34:57;7.60;99.90
16781;DHT22;8507;50.056;8.248;2023-04-25T05:37:23;7.70;99.90
16781;DHT22;8507;50.056;8.248;2023-04-25T05:39:48;7.90;99.90
16781;DHT22;8507;50.056;8.248;2023-04-25T05:42:14;7.40;99.90
16781;DHT22;8507;50.056;8.248;2023-04-25T05:44:39;7.60;99.90
16781;DHT22;8507;50.056;8.248;2023-04-25T05:47:05;7.70;99.90
16781;DHT22;8507;50.056;8.248;2023-04-25T05:49:31;8.10;99.90
16781;DHT22;8507;50.056;8.248;2023-04-25T05:51:56;8.20;99.90
16781;DHT22;8507;50.056;8.248;2023-04-25T05:54:22;8.40;99.90
16781;DHT22;8507;50.056;8.248;2023-04-25T05:56:47;8.50;99.90
16781;DHT22;8507;50.056;8.248;2023-04-25T05:59:13;8.60;99.90
16781;DHT22;8507;50.056;8.248;2023-04-25T06:01:38;8.70;99.90
16781;DHT22;8507;50.056;8.248;2023-04-25T06:04:04;8.80;99.90
16781;DHT22;8507;50.056;8.248;2023-04-25T06:06:29;8.60;99.90
16781;DHT22;8507;50.056;8.248;2023-04-25T06:08:55;8.80;99.90
16781;DHT22;8507;50.056;8.248;2023-04-25T06:11:21;8.70;99.90
16781;DHT22;8507;50.056;8.248;2023-04-25T06:13:46;8.80;99.90
16781;DHT22;8507;50.056;8.248;2023-04-25T06:16:12;9.00;99.90
16781;DHT22;8507;50.056;8.248;2023-04-25T06:18:37;9.20;99.90
16781;DHT22;8507;50.056;8.248;2023-04-25T06:21:03;9.20;99.90
16781;DHT22;8507;50.056;8.248;2023-04-25T06:23:29;9.20;99.90
16781;DHT22;8507;50.056;8.248;2023-04-25T06:25:54;9.10;99.90
16781;DHT22;8507;50.056;8.248;2023-04-25T06:28:20;9.30;99.90
16781;DHT22;8507;50.056;8.248;2023-04-25T06:30:47;9.30;99.90
16781;DHT22;8507;50.056;8.248;2023-04-25T06:33:12;9.40;99.90
16781;DHT22;8507;50.056;8.248;2023-04-25T06:35:38;9.50;99.90
16781;DHT22;8507;50.056;8.248;2023-04-25T06:38:03;9.60;99.90
16781;DHT22;8507;50.056;8.248;2023-04-25T06:40:29;9.80;99.90
16781;DHT22;8507;50.056;8.248;2023-04-25T06:42:55;10.00;99.90
16781;DHT22;8507;50.056;8.248;2023-04-25T06:45:20;10.10;99.90
16781;DHT22;8507;50.056;8.248;2023-04-25T06:47:46;10.10;99.90
16781;DHT22;8507;50.056;8.248;2023-04-25T06:50:11;10.20;99.90
16781;DHT22;8507;50.056;8.248;2023-04-25T06:52:37;10.30;99.90
16781;DHT22;8507;50.056;8.248;2023-04-25T06:55:02;10.60;99.90
16781;DHT22;8507;50.056;8.248;2023-04-25T06:57:29;10.90;99.90
16781;DHT22;8507;50.056;8.248;2023-04-25T06:59:55;11.30;99.90
16781;DHT22;8507;50.056;8.248;2023-04-25T07:02:20;11.40;99.90
16781;DHT22;8507;50.056;8.248;2023-04-25T07:04:47;11.20;99.90
16781;DHT22;8507;50.056;8.248;2023-04-25T07:07:12;11.30;99.90
16781;DHT22;8507;50.056;8.248;2023-04-25T07:09:38;11.10;99.90
16781;DHT22;8507;50.056;8.248;2023-04-25T07:12:04;11.40;99.90
16781;DHT22;8507;50.056;8.248;2023-04-25T07:14:30;11.60;99.90
16781;DHT22;8507;50.056;8.248;2023-04-25T07:16:55;11.30;99.90
16781;DHT22;8507;50.056;8.248;2023-04-25T07:19:22;11.10;99.90
16781;DHT22;8507;50.056;8.248;2023-04-25T07:21:49;10.90;99.90
16781;DHT22;8507;50.056;8.248;2023-04-25T07:24:15;10.90;99.90
16781;DHT22;8507;50.056;8.248;2023-04-25T07:26:40;10.50;99.90
16781;DHT22;8507;50.056;8.248;2023-04-25T07:29:06;10.60;99.90
16781;DHT22;8507;50.056;8.248;2023-04-25T07:31:31;10.00;99.90
16781;DHT22;8507;50.056;8.248;2023-04-25T07:33:57;10.30;99.90
16781;DHT22;8507;50.056;8.248;2023-04-25T07:36:22;10.50;99.90
16781;DHT22;8507;50.056;8.248;2023-04-25T07:38:48;10.70;99.90
16781;DHT22;8507;50.056;8.248;2023-04-25T07:41:13;10.80;99.90
16781;DHT22;8507;50.056;8.248;2023-04-25T07:43:39;10.90;99.90
16781;DHT22;8507;50.056;8.248;2023-04-25T07:46:04;10.50;99.90
16781;DHT22;8507;50.056;8.248;2023-04-25T07:48:30;10.60;99.90
16781;DHT22;8507;50.056;8.248;2023-04-25T07:50:55;10.80;99.90
16781;DHT22;8507;50.056;8.248;2023-04-25T07:53:21;10.60;99.90
16781;DHT22;8507;50.056;8.248;2023-04-25T07:55:47;11.10;99.90
16781;DHT22;8507;50.056;8.248;2023-04-25T07:58:12;10.00;99.90
16781;DHT22;8507;50.056;8.248;2023-04-25T08:00:39;10.20;99.90
16781;DHT22;8507;50.056;8.248;2023-04-25T08:03:04;10.70;99.90
16781;DHT22;8507;50.056;8.248;2023-04-25T08:05:31;10.40;99.90
16781;DHT22;8507;50.056;8.248;2023-04-25T08:07:56;10.60;99.90
16781;DHT22;8507;50.056;8.248;2023-04-25T08:10:22;10.60;99.90
16781;DHT22;8507;50.056;8.248;2023-04-25T08:12:48;11.00;99.90
16781;DHT22;8507;50.056;8.248;2023-04-25T08:15:15;11.20;99.90
16781;DHT22;8507;50.056;8.248;2023-04-25T08:17:40;11.40;99.90
16781;DHT22;8507;50.056;8.248;2023-04-25T08:20:06;11.20;99.90
16781;DHT22;8507;50.056;8.248;2023-04-25T08:22:32;11.30;99.90
16781;DHT22;8507;50.056;8.248;2023-04-25T08:24:57;11.50;99.90
16781;DHT22;8507;50.056;8.248;2023-04-25T08:27:23;10.80;99.90
16781;DHT22;8507;50.056;8.248;2023-04-25T08:29:49;11.30;99.90
16781;DHT22;8507;50.056;8.248;2023-04-25T08:32:15;11.30;99.90
16781;DHT22;8507;50.056;8.248;2023-04-25T08:34:41;11.60;99.90
16781;DHT22;8507;50.056;8.248;2023-04-25T08:37:08;11.80;99.90
16781;DHT22;8507;50.056;8.248;2023-04-25T08:39:35;11.60;99.90
16781;DHT22;8507;50.056;8.248;2023-04-25T08:42:03;11.30;99.90
16781;DHT22;8507;50.056;8.248;2023-04-25T08:44:33;11.20;99.90
16781;DHT22;8507;50.056;8.248;2023-04-25T08:47:02;11.50;99.90
16781;DHT22;8507;50.056;8.248;2023-04-25T08:49:30;11.80;99.90
16781;DHT22;8507;50.056;8.248;2023-04-25T08:52:00;11.90;99.90
16781;DHT22;8507;50.056;8.248;2023-04-25T08:54:27;11.80;99.90
16781;DHT22;8507;50.056;8.248;2023-04-25T08:56:54;11.30;99.90
16781;DHT22;8507;50.056;8.248;2023-04-25T08:59:22;11.20;99.90
16781;DHT22;8507;50.056;8.248;2023-04-25T09:01:49;11.30;99.90
16781;DHT22;8507;50.056;8.248;2023-04-25T09:04:15;10.80;99.90
16781;DHT22;8507;50.056;8.248;2023-04-25T09:06:41;11.00;99.90
16781;DHT22;8507;50.056;8.248;2023-04-25T09:09:08;11.30;99.90
16781;DHT22;8507;50.056;8.248;2023-04-25T09:11:37;11.60;99.90
16781;DHT22;8507;50.056;8.248;2023-04-25T09:14:17;11.30;99.90
16781;DHT22;8507;50.056;8.248;2023-04-25T09:16:58;11.20;99.90
16781;DHT22;8507;50.056;8.248;2023-04-25T09:19:33;11.10;99.90
16781;DHT22;8507;50.056;8.248;2023-04-25T09:22:02;11.60;99.90
16781;DHT22;8507;50.056;8.248;2023-04-25T09:27:07;12.40;99.90
16781;DHT22;8507;50.056;8.248;2023-04-25T09:29:35;12.40;99.90
16781;DHT22;8507;50.056;8.248;2023-04-25T09:34:41;12.30;99.90
16781;DHT22;8507;50.056;8.248;2023-04-25T09:37:09;12.00;99.90
16781;DHT22;8507;50.056;8.248;2023-04-25T09:39:34;11.90;99.90
16781;DHT22;8507;50.056;8.248;2023-04-25T09:42:00;12.20;99.90
16781;DHT22;8507;50.056;8.248;2023-04-25T09:44:25;12.30;99.90
16781;DHT22;8507;50.056;8.248;2023-04-25T09:46:52;11.50;99.90
16781;DHT22;8507;50.056;8.248;2023-04-25T09:49:20;12.00;99.90
16781;DHT22;8507;50.056;8.248;2023-04-25T09:51:59;12.20;99.90
16781;DHT22;8507;50.056;8.248;2023-04-25T09:54:26;11.90;99.90
16781;DHT22;8507;50.056;8.248;2023-04-25T09:56:52;11.90;99.90
16781;DHT22;8507;50.056;8.248;2023-04-25T09:59:22;12.00;99.90
16781;DHT22;8507;50.056;8.248;2023-04-25T10:01:52;11.70;99.90
16781;DHT22;8507;50.056;8.248;2023-04-25T10:04:25;11.80;99.90
16781;DHT22;8507;50.056;8.248;2023-04-25T10:06:54;12.20;99.90
16781;DHT22;8507;50.056;8.248;2023-04-25T10:09:21;12.40;99.90
16781;DHT22;8507;50.056;8.248;2023-04-25T10:11:50;12.60;99.90
16781;DHT22;8507;50.056;8.248;2023-04-25T10:14:16;12.30;99.90
16781;DHT22;8507;50.056;8.248;2023-04-25T10:16:42;11.70;99.90
16781;DHT22;8507;50.056;8.248;2023-04-25T10:19:09;12.20;99.90
16781;DHT22;8507;50.056;8.248;2023-04-25T10:21:40;12.20;99.90
16781;DHT22;8507;50.056;8.248;2023-04-25T10:24:09;11.80;99.90
16781;DHT22;8507;50.056;8.248;2023-04-25T10:26:35;12.00;99.90
16781;DHT22;8507;50.056;8.248;2023-04-25T10:29:03;12.00;99.90
16781;DHT22;8507;50.056;8.248;2023-04-25T10:31:30;12.10;99.90
16781;DHT22;8507;50.056;8.248;2023-04-25T10:33:56;11.80;99.90
16781;DHT22;8507;50.056;8.248;2023-04-25T10:36:23;11.90;99.90
16781;DHT22;8507;50.056;8.248;2023-04-25T10:38:50;11.80;99.90
16781;DHT22;8507;50.056;8.248;2023-04-25T10:41:20;11.90;99.90
16781;DHT22;8507;50.056;8.248;2023-04-25T10:43:48;11.70;99.90
16781;DHT22;8507;50.056;8.248;2023-04-25T10:46:29;11.80;99.90
16781;DHT22;8507;50.056;8.248;2023-04-25T10:49:00;11.60;99.90
16781;DHT22;8507;50.056;8.248;2023-04-25T10:51:31;11.80;99.90
16781;DHT22;8507;50.056;8.248;2023-04-25T10:54:03;12.10;99.90
16781;DHT22;8507;50.056;8.248;2023-04-25T10:56:37;11.80;99.90
16781;DHT22;8507;50.056;8.248;2023-04-25T10:59:10;11.90;99.90
16781;DHT22;8507;50.056;8.248;2023-04-25T11:01:43;11.90;99.90
16781;DHT22;8507;50.056;8.248;2023-04-25T11:04:23;11.90;99.90
16781;DHT22;8507;50.056;8.248;2023-04-25T11:09:33;12.40;99.90
16781;DHT22;8507;50.056;8.248;2023-04-25T11:11:59;12.50;99.90
16781;DHT22;8507;50.056;8.248;2023-04-25T11:14:26;12.20;99.90
16781;DHT22;8507;50.056;8.248;2023-04-25T11:16:56;11.90;99.90
16781;DHT22;8507;50.056;8.248;2023-04-25T11:19:23;12.00;99.90
16781;DHT22;8507;50.056;8.248;2023-04-25T11:21:49;12.10;99.90
16781;DHT22;8507;50.056;8.248;2023-04-25T11:24:16;12.10;99.90
16781;DHT22;8507;50.056;8.248;2023-04-25T11:26:43;12.40;99.90
16781;DHT22;8507;50.056;8.248;2023-04-25T11:29:08;12.40;99.90
16781;DHT22;8507;50.056;8.248;2023-04-25T11:31:34;12.10;99.90
16781;DHT22;8507;50.056;8.248;2023-04-25T11:34:00;12.10;99.90
16781;DHT22;8507;50.056;8.248;2023-04-25T11:36:27;11.50;99.90
16781;DHT22;8507;50.056;8.248;2023-04-25T11:38:53;11.30;99.90
16781;DHT22;8507;50.056;8.248;2023-04-25T11:41:22;11.70;99.90
16781;DHT22;8507;50.056;8.248;2023-04-25T11:43:48;12.10;99.90
16781;DHT22;8507;50.056;8.248;2023-04-25T11:46:15;12.30;99.90
16781;DHT22;8507;50.056;8.248;2023-04-25T11:48:41;12.20;99.90
16781;DHT22;8507;50.056;8.248;2023-04-25T11:51:08;11.70;99.90
16781;DHT22;8507;50.056;8.248;2023-04-25T11:53:35;11.70;99.90
16781;DHT22;8507;50.056;8.248;2023-04-25T11:56:01;11.40;99.90
16781;DHT22;8507;50.056;8.248;2023-04-25T11:58:27;11.20;99.90
16781;DHT22;8507;50.056;8.248;2023-04-25T12:00:53;11.90;99.90
16781;DHT22;8507;50.056;8.248;2023-04-25T12:03:18;12.10;99.90
16781;DHT22;8507;50.056;8.248;2023-04-25T12:05:45;12.10;99.90
16781;DHT22;8507;50.056;8.248;2023-04-25T12:08:17;12.00;99.90
16781;DHT22;8507;50.056;8.248;2023-04-25T12:10:44;12.40;99.90
16781;DHT22;8507;50.056;8.248;2023-04-25T12:13:21;11.90;99.90
16781;DHT22;8507;50.056;8.248;2023-04-25T12:15:47;12.10;99.90
16781;DHT22;8507;50.056;8.248;2023-04-25T12:18:13;12.40;99.90
16781;DHT22;8507;50.056;8.248;2023-04-25T12:20:38;12.20;99.90
16781;DHT22;8507;50.056;8.248;2023-04-25T12:23:07;12.80;99.90
16781;DHT22;8507;50.056;8.248;2023-04-25T12:25:43;13.60;99.90
16781;DHT22;8507;50.056;8.248;2023-04-25T12:28:24;13.70;99.90
16781;DHT22;8507;50.056;8.248;2023-04-25T12:33:22;13.30;99.90
16781;DHT22;8507;50.056;8.248;2023-04-25T12:35:48;13.10;99.90
16781;DHT22;8507;50.056;8.248;2023-04-25T12:38:30;12.10;99.90
16781;DHT22;8507;50.056;8.248;2023-04-25T12:40:57;11.70;99.90
16781;DHT22;8507;50.056;8.248;2023-04-25T12:43:22;12.10;99.90
16781;DHT22;8507;50.056;8.248;2023-04-25T12:45:51;11.80;99.90
16781;DHT22;8507;50.056;8.248;2023-04-25T12:48:17;11.30;99.90
16781;DHT22;8507;50.056;8.248;2023-04-25T12:50:43;11.50;99.90
16781;DHT22;8507;50.056;8.248;2023-04-25T12:53:09;11.50;99.90
16781;DHT22;8507;50.056;8.248;2023-04-25T12:55:35;11.70;99.90
16781;DHT22;8507;50.056;8.248;2023-04-25T12:58:00;11.90;99.90
16781;DHT22;8507;50.056;8.248;2023-04-25T13:00:26;11.80;99.90
16781;DHT22;8507;50.056;8.248;2023-04-25T13:02:52;12.30;99.90
16781;DHT22;8507;50.056;8.248;2023-04-25T13:05:17;12.80;99.90
16781;DHT22;8507;50.056;8.248;2023-04-25T13:07:43;13.50;99.90
16781;DHT22;8507;50.056;8.248;2023-04-25T13:10:08;14.00;99.90
16781;DHT22;8507;50.056;8.248;2023-04-25T13:12:34;13.40;99.90
16781;DHT22;8507;50.056;8.248;2023-04-25T13:15:00;13.90;99.90
16781;DHT22;8507;50.056;8.248;2023-04-25T13:17:25;13.90;99.90
16781;DHT22;8507;50.056;8.248;2023-04-25T13:19:51;14.10;99.90
16781;DHT22;8507;50.056;8.248;2023-04-25T13:22:16;14.30;99.90
16781;DHT22;8507;50.056;8.248;2023-04-25T13:24:44;14.20;99.90
16781;DHT22;8507;50.056;8.248;2023-04-25T13:27:10;13.20;99.90
16781;DHT22;8507;50.056;8.248;2023-04-25T13:29:35;12.90;99.90
16781;DHT22;8507;50.056;8.248;2023-04-25T13:32:03;12.90;99.90
16781;DHT22;8507;50.056;8.248;2023-04-25T13:34:29;13.40;99.90
16781;DHT22;8507;50.056;8.248;2023-04-25T13:36:55;13.70;99.90
16781;DHT22;8507;50.056;8.248;2023-04-25T13:39:20;13.70;99.90
16781;DHT22;8507;50.056;8.248;2023-04-25T13:41:46;13.70;99.90
16781;DHT22;8507;50.056;8.248;2023-04-25T13:44:11;13.70;99.90
16781;DHT22;8507;50.056;8.248;2023-04-25T13:46:37;13.50;99.90
16781;DHT22;8507;50.056;8.248;2023-04-25T13:49:03;13.50;99.90
16781;DHT22;8507;50.056;8.248;2023-04-25T13:51:29;13.60;99.90
16781;DHT22;8507;50.056;8.248;2023-04-25T13:53:56;13.20;99.90
16781;DHT22;8507;50.056;8.248;2023-04-25T13:56:22;13.10;99.90
16781;DHT22;8507;50.056;8.248;2023-04-25T13:58:48;13.20;99.90
16781;DHT22;8507;50.056;8.248;2023-04-25T14:01:15;13.10;99.90
16781;DHT22;8507;50.056;8.248;2023-04-25T14:03:40;12.90;99.90
16781;DHT22;8507;50.056;8.248;2023-04-25T14:06:06;12.70;99.90
16781;DHT22;8507;50.056;8.248;2023-04-25T14:08:34;12.40;99.90
16781;DHT22;8507;50.056;8.248;2023-04-25T14:10:59;12.10;99.90
16781;DHT22;8507;50.056;8.248;2023-04-25T14:13:26;12.10;99.90
16781;DHT22;8507;50.056;8.248;2023-04-25T14:15:51;12.50;99.90
16781;DHT22;8507;50.056;8.248;2023-04-25T14:18:18;12.10;99.90
16781;DHT22;8507;50.056;8.248;2023-04-25T14:20:43;11.80;99.90
16781;DHT22;8507;50.056;8.248;2023-04-25T14:23:09;12.10;99.90
16781;DHT22;8507;50.056;8.248;2023-04-25T14:25:35;12.10;99.90
16781;DHT22;8507;50.056;8.248;2023-04-25T14:28:02;12.30;99.90
16781;DHT22;8507;50.056;8.248;2023-04-25T14:30:28;12.00;99.90
16781;DHT22;8507;50.056;8.248;2023-04-25T14:32:54;12.20;99.90
16781;DHT22;8507;50.056;8.248;2023-04-25T14:35:19;12.40;99.90
16781;DHT22;8507;50.056;8.248;2023-04-25T14:37:45;12.10;99.90
16781;DHT22;8507;50.056;8.248;2023-04-25T14:40:12;11.70;99.90
16781;DHT22;8507;50.056;8.248;2023-04-25T14:42:39;11.80;99.90
16781;DHT22;8507;50.056;8.248;2023-04-25T14:45:05;11.90;99.90
16781;DHT22;8507;50.056;8.248;2023-04-25T14:47:32;11.70;99.90
16781;DHT22;8507;50.056;8.248;2023-04-25T14:49:58;11.70;99.90
16781;DHT22;8507;50.056;8.248;2023-04-25T14:52:24;11.60;99.90
16781;DHT22;8507;50.056;8.248;2023-04-25T14:54:50;11.80;99.90
16781;DHT22;8507;50.056;8.248;2023-04-25T14:57:16;12.00;99.90
16781;DHT22;8507;50.056;8.248;2023-04-25T14:59:42;12.20;99.90
16781;DHT22;8507;50.056;8.248;2023-04-25T15:02:07;12.40;99.90
16781;DHT22;8507;50.056;8.248;2023-04-25T15:04:33;12.50;99.90
16781;DHT22;8507;50.056;8.248;2023-04-25T15:06:58;12.70;99.90
16781;DHT22;8507;50.056;8.248;2023-04-25T15:09:24;12.70;99.90
16781;DHT22;8507;50.056;8.248;2023-04-25T15:11:50;12.60;99.90
16781;DHT22;8507;50.056;8.248;2023-04-25T15:14:17;12.20;99.90
16781;DHT22;8507;50.056;8.248;2023-04-25T15:16:42;11.60;99.90
16781;DHT22;8507;50.056;8.248;2023-04-25T15:19:08;11.80;99.90
16781;DHT22;8507;50.056;8.248;2023-04-25T15:21:34;11.70;99.90
16781;DHT22;8507;50.056;8.248;2023-04-25T15:24:00;11.80;99.90
16781;DHT22;8507;50.056;8.248;2023-04-25T15:26:26;12.10;99.90
16781;DHT22;8507;50.056;8.248;2023-04-25T15:28:52;12.30;99.90
16781;DHT22;8507;50.056;8.248;2023-04-25T15:31:18;12.50;99.90
16781;DHT22;8507;50.056;8.248;2023-04-25T15:33:44;12.60;99.90
16781;DHT22;8507;50.056;8.248;2023-04-25T15:36:09;12.70;99.90
16781;DHT22;8507;50.056;8.248;2023-04-25T15:38:35;12.60;99.90
16781;DHT22;8507;50.056;8.248;2023-04-25T15:41:01;12.60;99.90
16781;DHT22;8507;50.056;8.248;2023-04-25T15:43:28;12.60;99.90
16781;DHT22;8507;50.056;8.248;2023-04-25T15:45:54;12.30;99.90
16781;DHT22;8507;50.056;8.248;2023-04-25T15:48:20;12.00;99.90
16781;DHT22;8507;50.056;8.248;2023-04-25T15:50:45;11.80;99.90
16781;DHT22;8507;50.056;8.248;2023-04-25T15:53:11;11.90;99.90
16781;DHT22;8507;50.056;8.248;2023-04-25T15:55:37;12.10;99.90
16781;DHT22;8507;50.056;8.248;2023-04-25T15:58:02;12.20;99.90